KFME/FME METAR and TAF weather

Enter ICAO airport designator
Station Type Date Time Source
KFME METAR 2021/09/25 03:35 UTC NOAA

KFME 250335Z AUTO 00000KT 10SM CLR 10/10 A3011 RMK AO1


Station Type Date Time Source
KFME Decoded METAR 2021/09/25 03:35 UTC NOAA

Fort Meade / Tipton, MD, United States (KFME) 39-05N 076-46W
Sep 24, 2021 - 11:35 PM EDT / 2021.09.25 0335 UTC
Wind: Calm:0
Visibility: 10 mile(s):0
Sky conditions: clear
Temperature: 50 F (10 C)
Dew Point: 50 F (10 C)
Relative Humidity: 100%
Pressure (altimeter): 30.11 in. Hg (1019 hPa)
ob: KFME 250335Z AUTO 00000KT 10SM CLR 10/10 A3011 RMK AO1
cycle: 3

Station Type Date Time Source
KFME TAF UTC NOAA

Error!

Example: see airport list